createdAt,value
2022-12-14T00:01:54.104Z,97248.44
2022-12-14T00:04:20.491Z,97258.66
2022-12-14T00:06:46.869Z,97265.50
2022-12-14T00:09:13.326Z,97274.91
2022-12-14T00:11:40.028Z,97282.59
2022-12-14T00:14:06.430Z,97281.72
2022-12-14T00:16:33.813Z,97271.53
2022-12-14T00:19:00.869Z,97269.81
2022-12-14T00:21:27.505Z,97263.81
2022-12-14T00:23:54.502Z,97273.19
2022-12-14T00:26:22.412Z,97280.91
2022-12-14T00:28:49.578Z,97282.63
2022-12-14T00:31:16.024Z,97284.34
2022-12-14T00:33:42.421Z,97284.38
2022-12-14T00:36:09.495Z,97294.63
2022-12-14T00:38:36.412Z,97304.84
2022-12-14T00:41:02.841Z,97299.75
2022-12-14T00:43:29.271Z,97292.97
2022-12-14T00:45:55.748Z,97290.44
2022-12-14T00:48:22.836Z,97294.66
2022-12-14T00:50:49.889Z,97281.13
2022-12-14T00:53:16.746Z,97289.63
2022-12-14T00:55:44.511Z,97277.75
2022-12-14T00:58:17.422Z,97295.59
2022-12-14T01:00:47.273Z,97290.53
2022-12-14T01:03:13.695Z,97285.47
2022-12-14T01:05:40.224Z,97280.38
2022-12-14T01:08:06.849Z,97272.66
2022-12-14T01:10:33.328Z,97267.53
2022-12-14T01:12:59.706Z,97277.72
2022-12-14T01:15:26.070Z,97286.25
2022-12-14T01:17:52.685Z,97293.94
2022-12-14T01:20:19.217Z,97301.53
2022-12-14T01:22:45.821Z,97291.34
2022-12-14T01:25:12.197Z,97297.28
2022-12-14T01:27:38.550Z,97299.84
2022-12-14T01:30:05.269Z,97305.84
2022-12-14T01:32:31.788Z,97312.63
2022-12-14T01:34:58.137Z,97303.31
2022-12-14T01:37:24.528Z,97304.19
2022-12-14T01:39:50.868Z,97301.63
2022-12-14T01:42:17.249Z,97294.81
2022-12-14T01:44:43.997Z,97279.50
2022-12-14T01:47:29.570Z,97265.06
2022-12-14T01:50:22.755Z,97257.41
2022-12-14T01:52:49.521Z,97250.63
2022-12-14T01:55:20.929Z,97257.41
2022-12-14T01:57:51.225Z,97258.28
2022-12-14T02:00:18.020Z,97244.66
2022-12-14T02:02:48.212Z,97242.09
2022-12-14T02:05:14.736Z,97225.94
2022-12-14T02:07:41.118Z,97237.00
2022-12-14T02:10:08.059Z,97245.50
2022-12-14T02:12:40.354Z,97231.91
2022-12-14T02:15:07.078Z,97243.78
2022-12-14T02:17:33.431Z,97254.03
2022-12-14T02:19:59.837Z,97248.88
2022-12-14T02:22:51.139Z,97238.69
2022-12-14T02:25:31.743Z,97237.88
2022-12-14T02:28:09.301Z,97240.44
2022-12-14T02:30:37.688Z,97235.31
2022-12-14T02:33:16.177Z,97232.72
2022-12-14T02:35:44.213Z,97230.34
2022-12-14T02:38:27.471Z,97206.59
2022-12-14T02:41:12.657Z,97194.63
2022-12-14T02:43:50.910Z,97184.41
2022-12-14T02:46:32.873Z,97186.09
2022-12-14T02:48:59.219Z,97180.13
2022-12-14T02:51:55.784Z,97178.47
2022-12-14T02:54:38.670Z,97191.22
2022-12-14T02:57:26.485Z,97194.63
2022-12-14T02:59:55.082Z,97199.72
2022-12-14T03:02:21.565Z,97194.63
2022-12-14T03:04:48.851Z,97196.31
2022-12-14T03:07:33.669Z,97197.97
2022-12-14T03:10:01.678Z,97193.75
2022-12-14T03:12:28.057Z,97184.44
2022-12-14T03:14:54.422Z,97193.84
2022-12-14T03:17:23.533Z,97190.44
2022-12-14T03:19:57.669Z,97192.09
2022-12-14T03:22:26.250Z,97202.28
2022-12-14T03:25:01.543Z,97189.56
2022-12-14T03:27:38.875Z,97195.50
2022-12-14T03:30:07.578Z,97187.03
2022-12-14T03:32:34.683Z,97193.03
2022-12-14T03:35:11.697Z,97184.63
2022-12-14T03:37:39.812Z,97195.69
2022-12-14T03:40:07.758Z,97191.47
2022-12-14T03:42:59.157Z,97194.03
2022-12-14T03:45:30.867Z,97200.91
2022-12-14T03:48:13.743Z,97217.06
2022-12-14T03:50:44.614Z,97219.72
2022-12-14T03:53:20.729Z,97223.94
2022-12-14T03:56:20.699Z,97213.72
2022-12-14T03:58:57.414Z,97209.53
2022-12-14T04:01:36.123Z,97210.44
2022-12-14T04:04:07.058Z,97219.81
2022-12-14T04:06:37.734Z,97230.97
2022-12-14T04:09:09.810Z,97234.38
2022-12-14T04:11:57.785Z,97254.75
2022-12-14T04:14:46.719Z,97246.31
2022-12-14T04:17:33.914Z,97248.03
2022-12-14T04:20:17.194Z,97257.41
2022-12-14T04:22:46.414Z,97265.06
2022-12-14T04:25:41.124Z,97260.03
2022-12-14T04:28:33.521Z,97260.91
2022-12-14T04:31:01.641Z,97260.13
2022-12-14T04:33:46.584Z,97268.63
2022-12-14T04:36:24.901Z,97271.22
2022-12-14T04:38:54.809Z,97268.72
2022-12-14T04:41:23.803Z,97270.41
2022-12-14T04:43:50.600Z,97275.50
2022-12-14T04:46:18.284Z,97273.81
2022-12-14T04:48:57.535Z,97273.81
2022-12-14T04:51:48.837Z,97269.59
2022-12-14T04:54:50.677Z,97251.81
2022-12-14T04:57:31.409Z,97267.88
2022-12-14T04:59:57.855Z,97272.16
2022-12-14T05:02:47.847Z,97294.25
2022-12-14T05:05:15.129Z,97309.53
2022-12-14T05:07:44.398Z,97309.53
2022-12-14T05:10:20.337Z,97316.38
2022-12-14T05:12:51.110Z,97324.00
2022-12-14T05:15:19.772Z,97327.41
2022-12-14T05:17:46.104Z,97330.00
2022-12-14T05:20:20.452Z,97330.00
2022-12-14T05:22:46.858Z,97321.53
2022-12-14T05:25:13.443Z,97325.78
2022-12-14T05:27:39.854Z,97326.63
2022-12-14T05:30:06.923Z,97324.94
2022-12-14T05:32:33.390Z,97326.63
2022-12-14T05:34:59.771Z,97333.44
2022-12-14T05:37:26.106Z,97325.00
2022-12-14T05:39:52.466Z,97325.81
2022-12-14T05:42:18.851Z,97334.31
2022-12-14T05:44:45.224Z,97333.47
2022-12-14T05:47:11.615Z,97335.16
2022-12-14T05:49:37.982Z,97333.47
2022-12-14T05:52:04.572Z,97330.09
2022-12-14T05:54:30.978Z,97326.75
2022-12-14T05:56:57.378Z,97335.22
2022-12-14T05:59:23.819Z,97335.22
2022-12-14T06:01:50.816Z,97325.94
2022-12-14T06:04:17.779Z,97318.28
2022-12-14T06:06:44.284Z,97313.19
2022-12-14T06:09:11.276Z,97318.28
2022-12-14T06:11:38.617Z,97326.75
2022-12-14T06:14:05.458Z,97331.81
2022-12-14T06:16:31.919Z,97321.66
2022-12-14T06:18:59.791Z,97317.41
2022-12-14T06:21:30.891Z,97319.97
2022-12-14T06:23:57.482Z,97327.59
2022-12-14T06:26:24.192Z,97331.91
2022-12-14T06:28:50.595Z,97340.38
2022-12-14T06:31:25.093Z,97331.91
2022-12-14T06:33:53.110Z,97332.72
2022-12-14T06:36:24.426Z,97324.22
2022-12-14T06:38:51.327Z,97326.75
2022-12-14T06:41:17.722Z,97312.38
2022-12-14T06:43:44.116Z,97316.59
2022-12-14T06:46:15.483Z,97331.91
2022-12-14T06:48:42.582Z,97337.00
2022-12-14T06:51:09.040Z,97343.78
2022-12-14T06:53:35.632Z,97341.22
2022-12-14T06:56:08.945Z,97321.75
2022-12-14T06:58:35.516Z,97309.84
2022-12-14T07:01:15.948Z,97320.84
2022-12-14T07:03:42.651Z,97306.44
2022-12-14T07:06:09.156Z,97304.75
2022-12-14T07:08:36.520Z,97314.13
2022-12-14T07:11:07.270Z,97299.78
2022-12-14T07:13:34.001Z,97294.66
2022-12-14T07:16:00.656Z,97290.38
2022-12-14T07:18:27.494Z,97289.53
2022-12-14T07:20:57.152Z,97272.56
2022-12-14T07:23:27.908Z,97257.31
2022-12-14T07:25:59.636Z,97248.81
2022-12-14T07:28:27.332Z,97248.81
2022-12-14T07:30:57.459Z,97245.44
2022-12-14T07:33:24.400Z,97228.47
2022-12-14T07:35:50.965Z,97214.94
2022-12-14T07:38:18.102Z,97207.25
2022-12-14T07:40:44.772Z,97203.03
2022-12-14T07:43:11.153Z,97208.91
2022-12-14T07:45:37.827Z,97203.03
2022-12-14T07:48:07.031Z,97197.94
2022-12-14T07:50:33.379Z,97193.66
2022-12-14T07:52:59.782Z,97169.91
2022-12-14T07:55:26.155Z,97171.53
2022-12-14T07:57:52.527Z,97166.41
2022-12-14T08:00:19.123Z,97161.25
2022-12-14T08:02:45.570Z,97157.03
2022-12-14T08:05:12.966Z,97141.72
2022-12-14T08:07:39.413Z,97136.63
2022-12-14T08:10:06.289Z,97123.03
2022-12-14T08:12:32.717Z,97107.22
2022-12-14T08:14:59.080Z,97064.69
2022-12-14T08:17:25.419Z,97035.00
2022-12-14T08:19:51.899Z,97021.31
2022-12-14T08:22:18.240Z,97002.53
2022-12-14T08:24:44.617Z,96975.28
2022-12-14T08:27:16.128Z,96969.22
2022-12-14T08:29:42.614Z,96956.38
2022-12-14T08:32:08.976Z,96949.47
2022-12-14T08:34:35.308Z,96936.59
2022-12-14T08:37:01.656Z,96925.38
2022-12-14T08:39:28.036Z,96919.28
2022-12-14T08:41:54.407Z,96901.28
2022-12-14T08:44:20.839Z,96892.59
2022-12-14T08:46:47.777Z,96873.78
2022-12-14T08:49:14.373Z,96871.13
2022-12-14T08:51:40.773Z,96859.94
2022-12-14T08:54:07.136Z,96853.03
2022-12-14T08:56:33.501Z,96834.16
2022-12-14T08:58:59.868Z,96815.31
2022-12-14T09:01:32.990Z,96796.41
2022-12-14T09:04:04.954Z,96781.81
2022-12-14T09:06:32.955Z,96756.94
2022-12-14T09:08:59.376Z,96738.97
2022-12-14T09:11:25.715Z,96724.31
2022-12-14T09:13:55.561Z,96722.38
2022-12-14T09:16:22.445Z,96713.59
2022-12-14T09:18:48.898Z,96687.78
2022-12-14T09:21:15.372Z,96662.13
2022-12-14T09:23:41.891Z,96646.56
2022-12-14T09:26:09.932Z,96636.19
2022-12-14T09:28:37.325Z,96619.81
2022-12-14T09:31:05.700Z,96610.22
2022-12-14T09:33:32.542Z,96580.28
2022-12-14T09:36:02.876Z,96576.63
2022-12-14T09:38:30.924Z,96544.91
2022-12-14T09:40:58.585Z,96529.59
2022-12-14T09:43:37.942Z,96502.41
2022-12-14T09:46:21.803Z,96468.13
2022-12-14T09:48:49.074Z,96435.44
2022-12-14T09:51:16.583Z,96401.94
2022-12-14T09:53:43.321Z,96396.66
2022-12-14T09:56:13.268Z,96387.06
2022-12-14T09:58:39.612Z,96374.97
2022-12-14T10:01:24.365Z,96364.50
2022-12-14T10:03:53.676Z,96347.75
2022-12-14T10:06:27.756Z,96320.56
2022-12-14T10:09:15.729Z,96271.88
2022-12-14T10:12:03.617Z,96226.38
2022-12-14T10:14:49.896Z,96183.47
2022-12-14T10:17:26.105Z,96157.56
2022-12-14T10:19:54.097Z,96148.75
2022-12-14T10:22:42.366Z,96131.50
2022-12-14T10:25:11.940Z,96135.72
2022-12-14T10:28:09.397Z,96139.81
2022-12-14T10:30:25.027Z,96144.91
2022-12-14T10:33:03.362Z,96150.03
2022-12-14T10:35:53.283Z,96156.94
2022-12-14T10:38:33.058Z,96164.72
2022-12-14T10:41:08.601Z,96173.34
2022-12-14T10:43:39.022Z,96176.09
2022-12-14T10:46:14.887Z,96193.31
2022-12-14T10:49:27.014Z,96200.34
2022-12-14T10:52:05.377Z,96196.78
2022-12-14T10:54:33.307Z,96186.44
2022-12-14T10:56:59.923Z,96174.31
2022-12-14T10:59:38.822Z,96158.88
2022-12-14T11:02:16.196Z,96136.56
2022-12-14T11:04:52.381Z,96131.38
2022-12-14T11:07:21.119Z,96120.16
2022-12-14T11:09:47.500Z,96102.00
2022-12-14T11:12:13.925Z,96082.94
2022-12-14T11:14:53.435Z,96066.44
2022-12-14T11:17:29.675Z,96047.50
2022-12-14T11:20:16.723Z,96028.47
2022-12-14T11:22:57.366Z,96019.59
2022-12-14T11:25:42.832Z,96008.22
2022-12-14T11:28:21.783Z,95987.31
2022-12-14T11:31:08.752Z,95964.69
2022-12-14T11:33:39.289Z,95947.19
2022-12-14T11:36:09.819Z,95918.53
2022-12-14T11:38:36.257Z,95917.22
2022-12-14T11:41:08.943Z,95932.13
2022-12-14T11:43:41.097Z,95957.59
2022-12-14T11:46:07.808Z,95955.38
2022-12-14T11:48:36.800Z,95961.63
2022-12-14T11:51:11.389Z,95976.72
2022-12-14T11:53:37.842Z,95981.66
2022-12-14T11:56:06.038Z,95985.00
2022-12-14T11:58:37.370Z,95987.38
2022-12-14T12:01:05.655Z,95964.94
2022-12-14T12:03:41.965Z,95967.03
2022-12-14T12:06:13.054Z,95980.75
2022-12-14T12:08:40.697Z,95979.78
2022-12-14T12:11:18.172Z,95959.34
2022-12-14T12:13:45.939Z,95951.50
2022-12-14T12:16:18.353Z,95963.59
2022-12-14T12:19:12.220Z,95941.28
2022-12-14T12:21:43.075Z,95937.66
2022-12-14T12:24:22.919Z,95922.13
2022-12-14T12:26:53.264Z,95906.56
2022-12-14T12:29:21.582Z,95916.19
2022-12-14T12:32:01.415Z,95919.19
2022-12-14T12:34:31.889Z,95929.13
2022-12-14T12:37:25.140Z,95939.22
2022-12-14T12:39:50.485Z,95941.00
2022-12-14T12:42:26.807Z,95949.47
2022-12-14T12:45:09.248Z,95944.34
2022-12-14T12:47:47.131Z,95965.66
2022-12-14T12:50:16.645Z,95968.31
2022-12-14T12:53:04.340Z,95960.72
2022-12-14T12:55:34.340Z,95956.25
2022-12-14T12:58:01.317Z,95945.84
2022-12-14T13:00:27.833Z,95919.03
2022-12-14T13:02:54.546Z,95895.72
2022-12-14T13:05:45.691Z,95905.06
2022-12-14T13:08:14.954Z,95904.16
2022-12-14T13:10:50.511Z,95904.22
2022-12-14T13:13:29.682Z,95896.72
2022-12-14T13:16:29.720Z,95918.53
2022-12-14T13:21:49.918Z,95926.00
2022-12-14T13:24:18.038Z,95918.22
2022-12-14T13:27:25.294Z,95923.00
2022-12-14T13:30:29.352Z,95926.31
2022-12-14T13:33:01.937Z,95940.53
2022-12-14T13:35:47.320Z,95983.38
2022-12-14T13:38:42.274Z,95971.56
2022-12-14T13:41:26.793Z,95968.47
2022-12-14T13:43:53.209Z,95948.31
2022-12-14T13:46:21.971Z,95954.63
2022-12-14T13:48:49.041Z,95953.91
2022-12-14T13:51:25.099Z,95938.59
2022-12-14T13:53:56.927Z,95942.16
2022-12-14T13:56:33.200Z,95947.44
2022-12-14T13:59:00.078Z,95932.19
2022-12-14T14:01:48.516Z,95930.69
2022-12-14T14:04:29.614Z,95927.41
2022-12-14T14:07:15.324Z,95918.97
2022-12-14T14:09:54.874Z,95929.38
2022-12-14T14:12:30.246Z,95943.31
2022-12-14T14:15:38.153Z,95961.63
2022-12-14T14:18:07.656Z,95969.63
2022-12-14T14:20:47.333Z,95972.41
2022-12-14T14:23:13.694Z,95974.38
2022-12-14T14:25:48.583Z,95978.81
2022-12-14T14:28:22.217Z,95982.56
2022-12-14T14:30:54.137Z,95996.59
2022-12-14T14:33:45.312Z,96007.09
2022-12-14T14:36:32.936Z,96016.66
2022-12-14T14:39:01.112Z,96027.16
2022-12-14T14:41:30.166Z,96039.22
2022-12-14T14:43:59.219Z,96055.72
2022-12-14T14:46:37.262Z,96074.81
2022-12-14T14:49:03.785Z,96082.72
2022-12-14T14:51:32.805Z,96104.28
2022-12-14T14:57:35.048Z,96123.50
2022-12-14T15:00:02.253Z,96130.41
2022-12-14T15:02:41.810Z,96133.16
2022-12-14T15:08:02.279Z,96171.31
2022-12-14T15:10:32.636Z,96181.78
2022-12-14T15:13:14.879Z,96179.31
2022-12-14T15:15:42.989Z,96189.66
2022-12-14T15:18:31.390Z,96223.28
2022-12-14T15:21:02.326Z,96225.25
2022-12-14T15:23:36.807Z,96238.28
2022-12-14T15:26:04.447Z,96264.97
2022-12-14T15:28:32.006Z,96287.44
2022-12-14T15:30:58.458Z,96300.41
2022-12-14T15:33:34.777Z,96304.91
2022-12-14T15:36:08.561Z,96313.63
2022-12-14T15:38:36.614Z,96320.59
2022-12-14T15:41:05.064Z,96322.50
2022-12-14T15:43:32.143Z,96318.19
2022-12-14T15:46:04.119Z,96331.16
2022-12-14T15:48:34.055Z,96334.66
2022-12-14T15:51:04.537Z,96339.88
2022-12-14T15:53:38.160Z,96350.25
2022-12-14T15:56:33.403Z,96352.97
2022-12-14T15:59:05.261Z,96379.72
2022-12-14T16:01:34.767Z,96393.38
2022-12-14T16:04:11.917Z,96404.69
2022-12-14T16:06:40.581Z,96403.03
2022-12-14T16:09:28.716Z,96403.13
2022-12-14T16:11:56.448Z,96422.81
2022-12-14T16:14:29.180Z,96446.09
2022-12-14T16:16:55.691Z,96463.34
2022-12-14T16:19:28.687Z,96475.31
2022-12-14T16:22:11.384Z,96479.66
2022-12-14T16:24:38.117Z,96497.69
2022-12-14T16:27:04.684Z,96497.78
2022-12-14T16:29:32.264Z,96506.53
2022-12-14T16:32:05.563Z,96525.28
2022-12-14T16:34:33.354Z,96540.88
2022-12-14T16:37:30.931Z,96556.34
2022-12-14T16:39:47.672Z,96551.22
2022-12-14T16:42:32.822Z,96551.44
2022-12-14T16:44:59.233Z,96555.88
2022-12-14T16:47:28.474Z,96557.66
2022-12-14T16:49:55.795Z,96576.50
2022-12-14T16:52:30.628Z,96557.00
2022-12-14T16:55:17.116Z,96517.63
2022-12-14T16:57:49.241Z,96497.19
2022-12-14T17:00:32.388Z,96505.81
2022-12-14T17:03:00.531Z,96507.66
2022-12-14T17:05:35.500Z,96529.91
2022-12-14T17:08:02.109Z,96538.63
2022-12-14T17:10:28.639Z,96554.09
2022-12-14T17:12:58.895Z,96550.75
2022-12-14T17:15:26.170Z,96563.66
2022-12-14T17:17:53.659Z,96573.00
2022-12-14T17:20:25.945Z,96566.13
2022-12-14T17:22:53.477Z,96584.16
2022-12-14T17:25:20.009Z,96598.66
2022-12-14T17:27:46.519Z,96626.06
2022-12-14T17:30:17.809Z,96652.63
2022-12-14T17:32:44.399Z,96663.72
2022-12-14T17:35:19.081Z,96674.00
2022-12-14T17:37:45.607Z,96684.25
2022-12-14T17:40:12.253Z,96684.41
2022-12-14T17:42:39.692Z,96699.84
2022-12-14T17:45:07.121Z,96708.44
2022-12-14T17:47:33.507Z,96714.44
2022-12-14T17:49:59.901Z,96716.25
2022-12-14T17:52:31.654Z,96729.09
2022-12-14T17:54:58.704Z,96739.28
2022-12-14T17:57:25.462Z,96747.84
2022-12-14T18:00:10.424Z,96751.34
2022-12-14T18:02:37.062Z,96766.81
2022-12-14T18:05:03.859Z,96753.03
2022-12-14T18:07:30.221Z,96737.66
2022-12-14T18:09:56.615Z,96736.88
2022-12-14T18:12:24.303Z,96753.97
2022-12-14T18:14:51.314Z,96767.69
2022-12-14T18:17:18.667Z,96782.22
2022-12-14T18:19:45.051Z,96804.44
2022-12-14T18:22:14.310Z,96801.91
2022-12-14T18:24:40.723Z,96787.59
2022-12-14T18:27:07.387Z,96782.50
2022-12-14T18:29:33.836Z,96756.06
2022-12-14T18:32:00.336Z,96750.06
2022-12-14T18:34:26.794Z,96751.88
2022-12-14T18:36:53.215Z,96763.81
2022-12-14T18:39:19.795Z,96767.28
2022-12-14T18:41:46.205Z,96779.28
2022-12-14T18:44:12.605Z,96804.78
2022-12-14T18:46:39.543Z,96813.28
2022-12-14T18:49:05.965Z,96802.22
2022-12-14T18:51:32.380Z,96791.13
2022-12-14T18:53:59.816Z,96801.34
2022-12-14T18:56:27.998Z,96818.44
2022-12-14T18:58:54.381Z,96829.50
2022-12-14T19:01:22.590Z,96845.72
2022-12-14T19:03:49.328Z,96855.97
2022-12-14T19:06:43.437Z,96861.09
2022-12-14T19:09:07.460Z,96867.09
2022-12-14T19:11:35.750Z,96873.97
2022-12-14T19:14:02.181Z,96855.25
2022-12-14T19:16:28.739Z,96852.69
2022-12-14T19:18:55.197Z,96845.03
2022-12-14T19:21:21.713Z,96849.31
2022-12-14T19:23:48.085Z,96856.19
2022-12-14T19:26:14.448Z,96863.91
2022-12-14T19:28:40.980Z,96869.91
2022-12-14T19:31:09.700Z,96878.44
2022-12-14T19:33:36.321Z,96877.53
2022-12-14T19:36:09.309Z,96881.78
2022-12-14T19:38:36.229Z,96892.88
2022-12-14T19:41:07.569Z,96906.47
2022-12-14T19:43:34.898Z,96903.94
2022-12-14T19:46:06.181Z,96927.69
2022-12-14T19:48:32.597Z,96928.56
2022-12-14T19:51:03.084Z,96937.88
2022-12-14T19:53:33.744Z,96934.56
2022-12-14T19:56:00.662Z,96941.44
2022-12-14T19:58:27.800Z,96937.34
2022-12-14T20:00:54.559Z,96927.13
2022-12-14T20:03:21.267Z,96926.28
2022-12-14T20:05:58.620Z,96922.03
2022-12-14T20:08:25.951Z,96925.47
2022-12-14T20:10:55.301Z,96888.94
2022-12-14T20:13:22.482Z,96874.44
2022-12-14T20:15:53.170Z,96871.91
2022-12-14T20:18:20.098Z,96882.09
2022-12-14T20:20:49.469Z,96895.69
2022-12-14T20:23:17.621Z,96917.81
2022-12-14T20:25:43.990Z,96929.66
2022-12-14T20:28:10.353Z,96935.69
2022-12-14T20:30:42.402Z,96958.59
2022-12-14T20:33:08.822Z,96959.47
2022-12-14T20:35:35.166Z,96971.34
2022-12-14T20:38:01.551Z,96984.94
2022-12-14T20:40:27.908Z,97002.84
2022-12-14T20:42:54.308Z,97010.53
2022-12-14T20:45:20.683Z,97028.34
2022-12-14T20:47:47.030Z,97021.59
2022-12-14T20:50:13.388Z,97029.25
2022-12-14T20:52:39.775Z,97037.75
2022-12-14T20:55:06.292Z,97053.88
2022-12-14T20:57:33.194Z,97051.34
2022-12-14T20:59:59.662Z,97049.66
2022-12-14T21:02:26.193Z,97057.25
2022-12-14T21:04:52.715Z,97053.88
2022-12-14T21:07:24.252Z,97045.34
2022-12-14T21:09:52.332Z,97048.72
2022-12-14T21:12:21.551Z,97048.72
2022-12-14T21:14:52.088Z,97056.41
2022-12-14T21:17:19.884Z,97065.69
2022-12-14T21:19:46.298Z,97063.97
2022-12-14T21:22:14.316Z,97046.97
2022-12-14T21:27:27.854Z,97018.16
2022-12-14T21:29:54.283Z,97029.19
2022-12-14T21:32:20.747Z,97053.78
2022-12-14T21:34:47.259Z,97058.94
2022-12-14T21:37:13.737Z,97084.41
2022-12-14T21:39:40.097Z,97095.41
2022-12-14T21:42:15.705Z,97112.44
2022-12-14T21:44:46.500Z,97114.94
2022-12-14T21:47:14.962Z,97093.72
2022-12-14T21:49:42.308Z,97092.88
2022-12-14T21:52:09.770Z,97097.94
2022-12-14T21:54:36.231Z,97082.69
2022-12-14T21:57:21.336Z,97083.50
2022-12-14T21:59:47.698Z,97086.97
2022-12-14T22:02:16.376Z,97085.28
2022-12-14T22:04:46.758Z,97067.50
2022-12-14T22:07:20.062Z,97064.97
2022-12-14T22:09:49.674Z,97067.47
2022-12-14T22:12:16.930Z,97070.00
2022-12-14T22:14:43.291Z,97074.28
2022-12-14T22:17:10.799Z,97100.59
2022-12-14T22:19:37.152Z,97126.88
2022-12-14T22:22:03.564Z,97145.53
2022-12-14T22:24:30.085Z,97148.94
2022-12-14T22:26:56.716Z,97149.81
2022-12-14T22:29:24.015Z,97148.13
2022-12-14T22:31:51.309Z,97153.22
2022-12-14T22:34:20.472Z,97170.19
2022-12-14T22:36:47.614Z,97174.44
2022-12-14T22:39:14.625Z,97171.88
2022-12-14T22:41:41.083Z,97189.75
2022-12-14T22:44:07.459Z,97194.84
2022-12-14T22:46:33.904Z,97205.00
2022-12-14T22:49:00.482Z,97210.13
2022-12-14T22:51:29.048Z,97202.47
2022-12-14T22:53:55.754Z,97188.09
2022-12-14T22:56:28.204Z,97171.97
2022-12-14T22:59:20.436Z,97177.84
2022-12-14T23:01:49.673Z,97176.22
2022-12-14T23:04:16.981Z,97181.31
2022-12-14T23:06:43.414Z,97167.78
2022-12-14T23:09:28.544Z,97160.97
2022-12-14T23:12:14.220Z,97157.56
2022-12-14T23:15:00.200Z,97145.63
2022-12-14T23:17:44.913Z,97149.03
2022-12-14T23:20:29.816Z,97131.25
2022-12-14T23:23:14.627Z,97133.78
2022-12-14T23:25:59.668Z,97142.28
2022-12-14T23:28:49.884Z,97155.91
2022-12-14T23:31:34.998Z,97167.69
2022-12-14T23:34:20.085Z,97158.38
2022-12-14T23:37:04.957Z,97165.16
2022-12-14T23:39:49.646Z,97169.44
2022-12-14T23:42:34.405Z,97165.25
2022-12-14T23:45:19.352Z,97177.97
2022-12-14T23:48:04.238Z,97183.03
2022-12-14T23:50:48.857Z,97157.63
2022-12-14T23:53:33.998Z,97138.97
2022-12-14T23:56:18.696Z,97135.59
2022-12-14T23:59:03.723Z,97137.28
